createdAt,value
2019-03-02T00:00:38.639Z,19.30
2019-03-02T00:01:38.533Z,19.10
2019-03-02T00:02:38.622Z,20.20
2019-03-02T00:03:38.712Z,20.10
2019-03-02T00:04:42.043Z,18.30
2019-03-02T00:05:38.891Z,16.90
2019-03-02T00:06:38.979Z,18.20
2019-03-02T00:07:39.066Z,17.80
2019-03-02T00:08:39.157Z,19.80
2019-03-02T00:09:39.246Z,16.40
2019-03-02T00:10:40.607Z,21.60
2019-03-02T00:11:39.422Z,19.90
2019-03-02T00:12:39.511Z,19.30
2019-03-02T00:13:43.044Z,18.70
2019-03-02T00:14:39.689Z,17.40
2019-03-02T00:15:39.778Z,18.30
2019-03-02T00:16:43.246Z,19.60
2019-03-02T00:17:39.959Z,17.40
2019-03-02T00:18:40.045Z,18.50
2019-03-02T00:19:41.889Z,18.90
2019-03-02T00:20:40.223Z,17.90
2019-03-02T00:21:40.313Z,17.40
2019-03-02T00:22:43.543Z,20.50
2019-03-02T00:23:40.492Z,19.10
2019-03-02T00:24:42.223Z,17.90
2019-03-02T00:25:40.670Z,18.00
2019-03-02T00:26:42.930Z,18.70
2019-03-02T00:27:40.850Z,20.90
2019-03-02T00:28:40.938Z,20.10
2019-03-02T00:29:42.509Z,17.70
2019-03-02T00:30:41.116Z,19.90
2019-03-02T00:31:41.207Z,21.30
2019-03-02T00:32:41.675Z,19.30
2019-03-02T00:33:41.388Z,18.60
2019-03-02T00:34:41.474Z,18.30
2019-03-02T00:35:43.714Z,19.70
2019-03-02T00:36:41.654Z,19.90
2019-03-02T00:37:41.745Z,19.50
2019-03-02T00:38:43.474Z,17.30
2019-03-02T00:39:41.922Z,19.50
2019-03-02T00:40:42.012Z,21.10
2019-03-02T00:41:43.009Z,18.60
2019-03-02T00:42:42.190Z,20.40
2019-03-02T00:43:42.279Z,17.50
2019-03-02T00:44:42.368Z,21.40
2019-03-02T00:45:45.594Z,19.20
2019-03-02T00:46:42.547Z,21.30
2019-03-02T00:47:42.636Z,20.20
2019-03-02T00:48:43.602Z,21.70
2019-03-02T00:49:42.819Z,19.90
2019-03-02T00:50:42.909Z,21.00
2019-03-02T00:51:46.252Z,18.60
2019-03-02T00:52:43.089Z,18.30
2019-03-02T00:53:43.177Z,22.70
2019-03-02T00:54:43.498Z,22.30
2019-03-02T00:55:43.354Z,20.90
2019-03-02T00:56:43.734Z,20.80
2019-03-02T00:57:43.541Z,21.90
2019-03-02T00:58:43.628Z,20.00
2019-03-02T00:59:43.718Z,20.30
2019-03-02T01:00:43.805Z,21.10
2019-03-02T01:01:43.895Z,21.00
2019-03-02T01:02:43.982Z,18.40
2019-03-02T01:03:44.072Z,20.50
2019-03-02T01:04:44.159Z,21.50
2019-03-02T01:05:44.252Z,23.40
2019-03-02T01:06:44.950Z,22.30
2019-03-02T01:07:44.434Z,22.50
2019-03-02T01:08:44.521Z,20.10
2019-03-02T01:09:46.474Z,22.80
2019-03-02T01:10:44.703Z,20.90
2019-03-02T01:11:44.794Z,21.80
2019-03-02T01:12:45.275Z,21.00
2019-03-02T01:13:44.979Z,20.30
2019-03-02T01:14:45.068Z,21.30
2019-03-02T01:15:45.158Z,19.70
2019-03-02T01:16:45.245Z,21.80
2019-03-02T01:17:45.335Z,20.30
2019-03-02T01:18:45.422Z,21.40
2019-03-02T01:19:45.511Z,20.30
2019-03-02T01:20:45.602Z,22.90
2019-03-02T01:21:45.691Z,20.80
2019-03-02T01:22:48.379Z,21.30
2019-03-02T01:23:45.868Z,19.70
2019-03-02T01:24:45.959Z,21.50
2019-03-02T01:25:48.922Z,22.80
2019-03-02T01:26:46.140Z,18.90
2019-03-02T01:27:46.229Z,20.70
2019-03-02T01:28:46.317Z,21.80
2019-03-02T01:29:46.405Z,21.60
2019-03-02T01:30:46.496Z,21.80
2019-03-02T01:31:46.586Z,22.00
2019-03-02T01:32:48.962Z,22.70
2019-03-02T01:33:46.765Z,20.30
2019-03-02T01:34:46.852Z,22.80
2019-03-02T01:35:46.944Z,19.80
2019-03-02T01:36:47.033Z,20.80
2019-03-02T01:37:47.120Z,20.90
2019-03-02T01:38:47.213Z,20.80
2019-03-02T01:39:47.303Z,20.80
2019-03-02T01:40:47.391Z,22.10
2019-03-02T01:41:47.480Z,21.40
2019-03-02T01:42:47.568Z,22.20
2019-03-02T01:43:47.659Z,21.40
2019-03-02T01:44:48.716Z,20.50
2019-03-02T01:45:47.836Z,22.30
2019-03-02T01:46:47.925Z,21.60
2019-03-02T01:47:51.095Z,20.40
2019-03-02T01:48:48.102Z,22.10
2019-03-02T01:49:48.193Z,20.80
2019-03-02T01:50:48.927Z,23.50
2019-03-02T01:51:48.373Z,23.10
2019-03-02T01:52:48.467Z,21.30
2019-03-02T01:53:48.554Z,21.20
2019-03-02T01:54:48.644Z,21.60
2019-03-02T01:55:48.734Z,24.20
2019-03-02T01:56:48.825Z,23.70
2019-03-02T01:57:52.205Z,31.60
2019-03-02T01:58:49.003Z,27.80
2019-03-02T01:59:49.096Z,28.10
2019-03-02T02:00:49.980Z,22.10
2019-03-02T02:01:49.274Z,25.80
2019-03-02T02:02:49.366Z,23.50
2019-03-02T02:03:49.455Z,24.30
2019-03-02T02:04:49.545Z,24.60
2019-03-02T02:05:49.633Z,26.10
2019-03-02T02:06:49.721Z,28.50
2019-03-02T02:07:53.779Z,26.90
2019-03-02T02:08:49.902Z,28.30
2019-03-02T02:09:49.992Z,28.80
2019-03-02T02:10:50.078Z,29.80
2019-03-02T02:11:53.406Z,28.80
2019-03-02T02:12:50.256Z,26.70
2019-03-02T02:13:50.344Z,29.40
2019-03-02T02:14:50.981Z,28.00
2019-03-02T02:15:50.527Z,27.90
2019-03-02T02:16:50.613Z,26.20
2019-03-02T02:17:52.978Z,26.50
2019-03-02T02:18:50.790Z,25.90
2019-03-02T02:19:50.879Z,27.30
2019-03-02T02:20:51.630Z,27.00
2019-03-02T02:21:51.058Z,26.80
2019-03-02T02:22:51.148Z,24.70
2019-03-02T02:23:51.237Z,25.40
2019-03-02T02:24:51.332Z,26.50
2019-03-02T02:25:51.423Z,26.60
2019-03-02T02:26:51.509Z,25.80
2019-03-02T02:27:54.818Z,25.50
2019-03-02T02:28:51.692Z,29.50
2019-03-02T02:29:51.779Z,28.40
2019-03-02T02:30:51.871Z,25.30
2019-03-02T02:31:51.958Z,28.50
2019-03-02T02:32:52.047Z,26.90
2019-03-02T02:33:52.136Z,29.10
2019-03-02T02:34:56.524Z,25.00
2019-03-02T02:35:52.318Z,27.50
2019-03-02T02:36:53.094Z,27.50
2019-03-02T02:37:52.495Z,29.10
2019-03-02T02:38:54.728Z,26.70
2019-03-02T02:39:52.676Z,31.00
2019-03-02T02:40:52.834Z,27.40
2019-03-02T02:41:52.853Z,27.20
2019-03-02T02:42:52.952Z,27.20
2019-03-02T02:43:54.286Z,28.70
2019-03-02T02:44:53.119Z,30.10
2019-03-02T02:45:53.794Z,26.70
2019-03-02T02:46:53.297Z,27.60
2019-03-02T02:47:54.283Z,28.20
2019-03-02T02:48:53.473Z,28.80
2019-03-02T02:49:53.579Z,29.00
2019-03-02T02:50:53.657Z,26.40
2019-03-02T02:51:53.741Z,30.50
2019-03-02T02:52:53.834Z,26.60
2019-03-02T02:53:53.923Z,28.00
2019-03-02T02:54:57.487Z,26.30
2019-03-02T02:55:54.109Z,26.30
2019-03-02T02:56:58.768Z,27.40
2019-03-02T02:57:54.283Z,28.90
2019-03-02T02:58:56.262Z,27.20
2019-03-02T02:59:54.460Z,27.40
2019-03-02T03:00:55.322Z,25.60
2019-03-02T03:01:54.638Z,28.80
2019-03-02T03:02:54.728Z,28.20
2019-03-02T03:03:59.294Z,26.80
2019-03-02T03:04:54.915Z,29.40
2019-03-02T03:05:55.699Z,29.50
2019-03-02T03:06:55.082Z,26.20
2019-03-02T03:07:55.941Z,28.30
2019-03-02T03:08:55.269Z,28.80
2019-03-02T03:09:55.360Z,28.10
2019-03-02T03:10:55.447Z,27.00
2019-03-02T03:11:55.537Z,29.20
2019-03-02T03:12:56.689Z,31.20
2019-03-02T03:13:55.721Z,30.50
2019-03-02T03:14:58.372Z,28.90
2019-03-02T03:15:55.892Z,31.40
2019-03-02T03:16:55.990Z,27.70
2019-03-02T03:17:56.074Z,29.00
2019-03-02T03:18:56.162Z,26.30
2019-03-02T03:19:56.256Z,29.50
2019-03-02T03:20:56.339Z,27.40
2019-03-02T03:21:56.431Z,28.50
2019-03-02T03:22:56.519Z,29.50
2019-03-02T03:24:02.872Z,30.00
2019-03-02T03:24:56.703Z,27.50
2019-03-02T03:25:58.564Z,29.80
2019-03-02T03:26:56.882Z,26.80
2019-03-02T03:27:56.967Z,26.90
2019-03-02T03:28:57.065Z,28.60
2019-03-02T03:29:57.151Z,28.60
2019-03-02T03:30:57.261Z,27.70
2019-03-02T03:32:07.824Z,28.00
2019-03-02T03:32:59.562Z,28.10
2019-03-02T03:33:57.506Z,27.60
2019-03-02T03:34:57.595Z,29.60
2019-03-02T03:35:57.794Z,30.80
2019-03-02T03:36:57.775Z,30.50
2019-03-02T03:37:57.871Z,28.40
2019-03-02T03:38:57.952Z,27.40
2019-03-02T03:39:58.041Z,27.80
2019-03-02T03:41:00.215Z,25.80
2019-03-02T03:41:58.218Z,27.10
2019-03-02T03:43:02.977Z,26.20
2019-03-02T03:43:58.406Z,24.50
2019-03-02T03:44:59.769Z,26.10
2019-03-02T03:45:58.582Z,27.20
2019-03-02T03:47:00.703Z,26.40
2019-03-02T03:47:58.757Z,27.60
2019-03-02T03:48:58.847Z,25.10
2019-03-02T03:49:58.935Z,25.80
2019-03-02T03:50:59.037Z,23.60
2019-03-02T03:51:59.114Z,25.10
2019-03-02T03:52:59.202Z,23.80
2019-03-02T03:54:01.779Z,22.90
2019-03-02T03:54:59.421Z,20.90
2019-03-02T03:56:04.216Z,22.50
2019-03-02T03:56:59.560Z,23.00
2019-03-02T03:58:00.585Z,21.20
2019-03-02T03:58:59.735Z,20.30
2019-03-02T04:00:00.543Z,20.00
2019-03-02T04:00:59.914Z,20.20
2019-03-02T04:02:00.009Z,20.80
2019-03-02T04:03:00.097Z,21.10
2019-03-02T04:04:00.183Z,21.40
2019-03-02T04:05:07.002Z,18.50
2019-03-02T04:06:00.361Z,18.90
2019-03-02T04:07:01.280Z,21.10
2019-03-02T04:08:00.559Z,19.90
2019-03-02T04:09:03.287Z,18.60
2019-03-02T04:10:00.720Z,20.50
2019-03-02T04:11:04.622Z,20.10
2019-03-02T04:12:00.901Z,20.80
2019-03-02T04:13:04.810Z,20.10
2019-03-02T04:14:01.081Z,22.20
2019-03-02T04:15:01.850Z,20.30
2019-03-02T04:16:01.260Z,18.80
2019-03-02T04:17:01.842Z,18.60
2019-03-02T04:18:01.442Z,19.70
2019-03-02T04:19:01.556Z,20.90
2019-03-02T04:20:12.525Z,19.20
2019-03-02T04:21:01.760Z,19.10
2019-03-02T04:22:05.967Z,20.30
2019-03-02T04:23:01.924Z,19.40
2019-03-02T04:24:03.289Z,21.10
2019-03-02T04:25:02.106Z,21.50
2019-03-02T04:26:02.196Z,20.60
2019-03-02T04:27:02.289Z,21.80
2019-03-02T04:28:02.371Z,21.50
2019-03-02T04:29:08.939Z,20.80
2019-03-02T04:30:02.553Z,22.20
2019-03-02T04:31:04.697Z,20.70
2019-03-02T04:32:02.729Z,21.70
2019-03-02T04:33:05.827Z,20.50
2019-03-02T04:34:02.911Z,18.90
2019-03-02T04:35:03.008Z,23.70
2019-03-02T04:36:09.582Z,20.40
2019-03-02T04:37:03.190Z,22.80
2019-03-02T04:38:03.271Z,21.00
2019-03-02T04:39:03.360Z,21.40
2019-03-02T04:40:03.452Z,22.70
2019-03-02T04:41:04.122Z,21.40
2019-03-02T04:42:03.631Z,23.30
2019-03-02T04:43:03.719Z,21.00
2019-03-02T04:44:03.807Z,22.30
2019-03-02T04:45:04.986Z,22.00
2019-03-02T04:46:03.986Z,21.70
2019-03-02T04:47:04.073Z,22.50
2019-03-02T04:48:04.695Z,22.70
2019-03-02T04:49:04.255Z,21.10
2019-03-02T04:50:04.342Z,21.30
2019-03-02T04:51:04.432Z,20.40
2019-03-02T04:52:04.519Z,21.10
2019-03-02T04:53:04.610Z,22.40
2019-03-02T04:54:04.697Z,23.00
2019-03-02T04:55:04.787Z,23.80
2019-03-02T04:56:04.883Z,22.30
2019-03-02T04:57:04.964Z,20.70
2019-03-02T04:58:05.053Z,24.60
2019-03-02T04:59:05.141Z,21.20
2019-03-02T05:00:05.234Z,22.60
2019-03-02T05:01:06.869Z,22.10
2019-03-02T05:02:05.412Z,21.00
2019-03-02T05:03:05.500Z,20.20
2019-03-02T05:04:05.591Z,21.50
2019-03-02T05:05:08.285Z,21.20
2019-03-02T05:06:05.767Z,22.30
2019-03-02T05:07:05.857Z,20.80
2019-03-02T05:08:06.357Z,24.90
2019-03-02T05:09:06.036Z,21.60
2019-03-02T05:10:06.125Z,21.90
2019-03-02T05:11:06.241Z,21.10
2019-03-02T05:12:06.294Z,22.80
2019-03-02T05:13:06.389Z,22.40
2019-03-02T05:14:06.479Z,22.30
2019-03-02T05:15:06.567Z,23.30
2019-03-02T05:16:06.656Z,23.70
2019-03-02T05:17:07.319Z,23.30
2019-03-02T05:18:06.834Z,22.30
2019-03-02T05:19:06.923Z,22.60
2019-03-02T05:20:07.013Z,24.10
2019-03-02T05:21:07.105Z,24.20
2019-03-02T05:22:07.194Z,23.10
2019-03-02T05:23:07.283Z,21.10
2019-03-02T05:24:09.258Z,25.30
2019-03-02T05:25:07.463Z,24.50
2019-03-02T05:26:07.553Z,25.00
2019-03-02T05:27:07.643Z,23.50
2019-03-02T05:28:08.114Z,23.80
2019-03-02T05:29:07.820Z,22.30
2019-03-02T05:30:07.908Z,23.20
2019-03-02T05:31:07.998Z,24.20
2019-03-02T05:32:08.086Z,23.70
2019-03-02T05:33:08.182Z,24.30
2019-03-02T05:34:08.265Z,25.70
2019-03-02T05:35:11.822Z,22.80
2019-03-02T05:36:08.443Z,22.70
2019-03-02T05:37:08.527Z,25.60
2019-03-02T05:38:11.757Z,21.90
2019-03-02T05:39:08.706Z,23.70
2019-03-02T05:40:08.793Z,23.60
2019-03-02T05:41:08.881Z,25.40
2019-03-02T05:42:10.429Z,24.30
2019-03-02T05:43:09.065Z,24.30
2019-03-02T05:44:09.151Z,23.80
2019-03-02T05:45:09.237Z,23.90
2019-03-02T05:46:09.326Z,24.60
2019-03-02T05:47:09.415Z,24.50
2019-03-02T05:48:09.505Z,24.70
2019-03-02T05:49:09.588Z,25.30
2019-03-02T05:50:09.676Z,23.40
2019-03-02T05:51:09.768Z,23.50
2019-03-02T05:52:09.853Z,24.10
2019-03-02T05:53:09.943Z,23.10
2019-03-02T05:54:10.032Z,26.50
2019-03-02T05:55:10.122Z,25.30
2019-03-02T05:56:10.211Z,25.60
2019-03-02T05:57:10.301Z,23.90
2019-03-02T05:58:12.516Z,26.00
2019-03-02T05:59:10.480Z,24.30
2019-03-02T06:00:10.568Z,25.90
2019-03-02T06:01:10.656Z,25.00
2019-03-02T06:02:13.877Z,24.30
2019-03-02T06:03:10.837Z,26.00
2019-03-02T06:04:10.926Z,26.20
2019-03-02T06:05:11.022Z,29.40
2019-03-02T06:06:11.105Z,26.30
2019-03-02T06:07:11.197Z,25.70
2019-03-02T06:08:11.284Z,25.80
2019-03-02T06:09:13.976Z,27.30
2019-03-02T06:10:13.587Z,25.60
2019-03-02T06:11:11.552Z,25.00
2019-03-02T06:12:11.842Z,24.70
2019-03-02T06:13:11.734Z,24.60
2019-03-02T06:14:11.819Z,23.70
2019-03-02T06:15:11.909Z,28.00
2019-03-02T06:16:11.996Z,24.30
2019-03-02T06:17:12.088Z,24.80
2019-03-02T06:18:12.178Z,25.90
2019-03-02T06:19:12.267Z,28.20
2019-03-02T06:20:12.355Z,25.70
2019-03-02T06:21:12.447Z,24.90
2019-03-02T06:22:12.536Z,25.70
2019-03-02T06:23:12.627Z,26.30
2019-03-02T06:24:12.717Z,25.80
2019-03-02T06:25:19.196Z,25.80
2019-03-02T06:26:12.906Z,26.50
2019-03-02T06:27:12.985Z,25.70
2019-03-02T06:28:13.085Z,25.60
2019-03-02T06:29:13.175Z,25.80
2019-03-02T06:30:13.267Z,28.10
2019-03-02T06:31:15.835Z,26.40
2019-03-02T06:32:13.450Z,25.80
2019-03-02T06:33:13.539Z,24.50
2019-03-02T06:34:16.773Z,27.50
2019-03-02T06:35:13.721Z,26.60
2019-03-02T06:36:13.809Z,26.40
2019-03-02T06:37:17.015Z,26.40
2019-03-02T06:38:13.987Z,28.90
2019-03-02T06:39:14.080Z,27.00
2019-03-02T06:40:16.041Z,30.20
2019-03-02T06:41:14.261Z,24.90
2019-03-02T06:42:14.351Z,26.60
2019-03-02T06:43:17.885Z,25.40
2019-03-02T06:44:14.537Z,28.50
2019-03-02T06:45:14.618Z,27.80
2019-03-02T06:46:15.878Z,32.10
2019-03-02T06:47:14.799Z,29.70
2019-03-02T06:48:14.915Z,30.50
2019-03-02T06:49:16.787Z,30.00
2019-03-02T06:50:15.126Z,30.20
2019-03-02T06:51:15.194Z,29.80
2019-03-02T06:52:15.291Z,30.60
2019-03-02T06:53:15.498Z,32.00
2019-03-02T06:54:15.493Z,30.60
2019-03-02T06:55:15.586Z,35.50
2019-03-02T06:56:15.889Z,32.60
2019-03-02T06:57:15.852Z,32.70
2019-03-02T06:58:15.809Z,32.50
2019-03-02T06:59:15.973Z,36.20
2019-03-02T07:00:16.129Z,34.90
2019-03-02T07:01:16.070Z,37.10
2019-03-02T07:02:16.176Z,37.20
2019-03-02T07:03:16.387Z,34.30
2019-03-02T07:04:18.052Z,34.70
2019-03-02T07:05:16.434Z,35.20
2019-03-02T07:06:16.522Z,33.70
2019-03-02T07:07:18.564Z,35.00
2019-03-02T07:08:16.706Z,36.80
2019-03-02T07:09:16.795Z,38.10
2019-03-02T07:10:17.676Z,38.70
2019-03-02T07:11:16.975Z,39.80
2019-03-02T07:12:17.064Z,38.00
2019-03-02T07:13:17.898Z,36.50
2019-03-02T07:14:19.182Z,41.20
2019-03-02T07:15:19.330Z,39.70
2019-03-02T07:16:20.111Z,40.10
2019-03-02T07:17:17.624Z,40.60
2019-03-02T07:18:17.713Z,41.40
2019-03-02T07:19:17.803Z,39.90
2019-03-02T07:20:17.892Z,43.00
2019-03-02T07:21:17.984Z,41.50
2019-03-02T07:22:18.085Z,46.80
2019-03-02T07:23:18.166Z,41.50
2019-03-02T07:24:18.258Z,41.40
2019-03-02T07:25:18.346Z,41.20
2019-03-02T07:26:19.807Z,45.00
2019-03-02T07:27:18.523Z,43.90
2019-03-02T07:28:18.611Z,44.60
2019-03-02T07:29:18.770Z,45.80
2019-03-02T07:30:18.793Z,45.20
2019-03-02T07:31:18.882Z,44.40
2019-03-02T07:32:18.972Z,41.40
2019-03-02T07:33:19.065Z,44.90
2019-03-02T07:34:19.155Z,42.30
2019-03-02T07:35:20.354Z,45.80
2019-03-02T07:36:19.333Z,42.30
2019-03-02T07:37:19.422Z,43.20
2019-03-02T07:38:20.264Z,44.90
2019-03-02T07:39:19.606Z,46.30
2019-03-02T07:40:19.694Z,47.00
2019-03-02T07:41:22.148Z,45.90
2019-03-02T07:42:19.873Z,44.20
2019-03-02T07:43:19.963Z,44.30
2019-03-02T07:44:22.301Z,45.40
2019-03-02T07:45:20.145Z,52.80
2019-03-02T07:46:20.232Z,46.40
2019-03-02T07:47:20.672Z,49.40
2019-03-02T07:48:20.411Z,46.50
2019-03-02T07:49:20.501Z,44.80
2019-03-02T07:50:21.821Z,46.40
2019-03-02T07:51:22.563Z,44.70
2019-03-02T07:52:20.777Z,46.00
2019-03-02T07:53:20.866Z,42.20
2019-03-02T07:54:20.957Z,49.10
2019-03-02T07:55:22.456Z,48.30
2019-03-02T07:56:21.136Z,45.70
2019-03-02T07:57:21.230Z,51.30
2019-03-02T07:58:21.312Z,70.50
2019-03-02T07:59:21.401Z,59.40
2019-03-02T08:00:21.498Z,45.20
2019-03-02T08:01:21.584Z,49.60
2019-03-02T08:02:21.671Z,45.60
2019-03-02T08:03:21.763Z,49.20
2019-03-02T08:04:21.850Z,46.90
2019-03-02T08:05:21.946Z,45.20
2019-03-02T08:06:25.596Z,42.70
2019-03-02T08:07:22.120Z,45.70
2019-03-02T08:08:22.212Z,54.70
2019-03-02T08:09:25.843Z,47.10
2019-03-02T08:10:22.391Z,44.50
2019-03-02T08:11:22.482Z,58.40
2019-03-02T08:12:24.870Z,55.80
2019-03-02T08:13:22.662Z,43.50
2019-03-02T08:14:22.750Z,42.00
2019-03-02T08:15:24.242Z,44.70
2019-03-02T08:16:22.931Z,46.10
2019-03-02T08:17:23.022Z,45.40
2019-03-02T08:18:26.009Z,43.40
2019-03-02T08:19:23.271Z,44.20
2019-03-02T08:20:24.562Z,42.70
2019-03-02T08:21:23.341Z,48.70
2019-03-02T08:22:23.431Z,41.90
2019-03-02T08:23:23.521Z,40.10
2019-03-02T08:24:23.611Z,41.60
2019-03-02T08:25:23.703Z,41.90
2019-03-02T08:26:23.796Z,47.30
2019-03-02T08:27:23.887Z,44.00
2019-03-02T08:28:23.973Z,40.60
2019-03-02T08:29:24.063Z,42.50
2019-03-02T08:30:24.156Z,40.50
2019-03-02T08:31:24.246Z,43.70
2019-03-02T08:32:26.231Z,43.20
2019-03-02T08:33:24.425Z,41.90
2019-03-02T08:34:24.515Z,40.20
2019-03-02T08:35:24.607Z,37.10
2019-03-02T08:36:24.701Z,41.20
2019-03-02T08:37:26.662Z,39.50
2019-03-02T08:38:25.130Z,41.20
2019-03-02T08:39:24.994Z,39.30
2019-03-02T08:40:24.977Z,39.00
2019-03-02T08:41:25.190Z,38.70
2019-03-02T08:42:25.157Z,38.40
2019-03-02T08:43:25.247Z,37.20
2019-03-02T08:44:25.339Z,36.80
2019-03-02T08:45:27.625Z,40.50
2019-03-02T08:46:25.518Z,39.40
2019-03-02T08:47:25.610Z,36.90
2019-03-02T08:48:25.701Z,40.50
2019-03-02T08:49:25.782Z,38.80
2019-03-02T08:50:25.881Z,34.90
2019-03-02T08:51:25.972Z,36.80
2019-03-02T08:52:26.064Z,36.50
2019-03-02T08:53:26.153Z,38.30
2019-03-02T08:54:26.242Z,36.40
2019-03-02T08:55:29.882Z,35.80
2019-03-02T08:56:26.420Z,37.30
2019-03-02T08:57:27.292Z,37.00
2019-03-02T08:58:26.771Z,38.00
2019-03-02T08:59:26.694Z,40.20
2019-03-02T09:00:26.790Z,37.40
2019-03-02T09:01:26.874Z,39.30
2019-03-02T09:02:27.029Z,40.60
2019-03-02T09:03:27.051Z,37.20
2019-03-02T09:04:27.144Z,35.50
2019-03-02T09:05:46.926Z,38.00
2019-03-02T09:06:27.327Z,38.40
2019-03-02T09:07:27.415Z,36.70
2019-03-02T09:08:27.503Z,39.60
2019-03-02T09:09:27.593Z,36.60
2019-03-02T09:10:27.684Z,35.80
2019-03-02T09:11:27.771Z,37.60
2019-03-02T09:12:27.869Z,39.20
2019-03-02T09:13:30.971Z,37.40
2019-03-02T09:14:28.039Z,37.90
2019-03-02T09:15:30.130Z,38.30
2019-03-02T09:16:28.219Z,32.80
2019-03-02T09:17:28.314Z,33.90
2019-03-02T09:18:33.438Z,32.00
2019-03-02T09:19:28.493Z,33.70
2019-03-02T09:20:28.589Z,37.20
2019-03-02T09:21:28.677Z,36.70
2019-03-02T09:22:28.762Z,35.00
2019-03-02T09:23:28.855Z,32.00
2019-03-02T09:24:28.950Z,31.00
2019-03-02T09:25:29.610Z,34.90
2019-03-02T09:26:29.133Z,32.20
2019-03-02T09:27:29.221Z,33.80
2019-03-02T09:28:29.323Z,30.90
2019-03-02T09:29:29.413Z,32.10
2019-03-02T09:30:29.500Z,33.20
2019-03-02T09:31:29.590Z,34.20
2019-03-02T09:32:29.682Z,33.00
2019-03-02T09:33:29.987Z,32.90
2019-03-02T09:34:29.862Z,31.20
2019-03-02T09:35:29.953Z,31.90
2019-03-02T09:36:31.260Z,31.70
2019-03-02T09:37:30.136Z,31.30
2019-03-02T09:38:30.228Z,33.30
2019-03-02T09:39:31.789Z,34.10
2019-03-02T09:40:30.410Z,30.30
2019-03-02T09:41:30.499Z,30.10
2019-03-02T09:42:37.530Z,30.60
2019-03-02T09:43:30.678Z,31.00
2019-03-02T09:44:32.764Z,29.80
2019-03-02T09:45:30.861Z,32.30
2019-03-02T09:46:30.951Z,29.20
2019-03-02T09:47:31.040Z,32.00
2019-03-02T09:48:31.132Z,29.50
2019-03-02T09:49:33.970Z,33.80
2019-03-02T09:50:31.315Z,31.10
2019-03-02T09:51:31.406Z,33.40
2019-03-02T09:52:31.493Z,30.50
2019-03-02T09:53:31.584Z,30.50
2019-03-02T09:54:31.674Z,30.00
2019-03-02T09:55:31.768Z,31.30
2019-03-02T09:56:31.857Z,30.70
2019-03-02T09:57:31.951Z,28.60
2019-03-02T09:58:32.039Z,30.30
2019-03-02T09:59:32.129Z,25.60
2019-03-02T10:00:32.221Z,28.80
2019-03-02T10:01:35.664Z,28.60
2019-03-02T10:02:32.402Z,27.60
2019-03-02T10:03:32.492Z,28.60
2019-03-02T10:04:35.793Z,29.80
2019-03-02T10:05:32.673Z,27.70
2019-03-02T10:06:32.763Z,26.60
2019-03-02T10:07:34.552Z,27.20
2019-03-02T10:08:32.942Z,27.00
2019-03-02T10:09:33.035Z,28.90
2019-03-02T10:10:33.387Z,26.80
2019-03-02T10:11:33.217Z,27.80
2019-03-02T10:12:33.306Z,26.70
2019-03-02T10:13:33.406Z,26.20
2019-03-02T10:14:35.021Z,25.20
2019-03-02T10:15:33.587Z,23.80
2019-03-02T10:16:33.680Z,25.60
2019-03-02T10:17:34.937Z,24.90
2019-03-02T10:18:33.860Z,26.00
2019-03-02T10:19:33.951Z,26.70
2019-03-02T10:20:42.601Z,26.20
2019-03-02T10:21:34.081Z,25.30
2019-03-02T10:22:35.332Z,26.20
2019-03-02T10:23:34.260Z,27.20
2019-03-02T10:24:34.349Z,24.40
2019-03-02T10:25:34.439Z,25.60
2019-03-02T10:26:34.530Z,24.20
2019-03-02T10:27:34.630Z,24.70
2019-03-02T10:28:35.432Z,24.30
2019-03-02T10:29:34.801Z,21.80
2019-03-02T10:30:34.892Z,24.20
2019-03-02T10:31:34.984Z,26.20
2019-03-02T10:32:35.074Z,23.60
2019-03-02T10:33:35.164Z,24.90
2019-03-02T10:34:38.492Z,26.10
2019-03-02T10:35:35.346Z,23.60
2019-03-02T10:36:35.436Z,21.50
2019-03-02T10:37:35.537Z,24.80
2019-03-02T10:38:35.650Z,23.80
2019-03-02T10:39:35.778Z,24.60
2019-03-02T10:40:35.884Z,24.90
2019-03-02T10:41:35.976Z,24.00
2019-03-02T10:42:37.364Z,24.10
2019-03-02T10:43:36.157Z,22.90
2019-03-02T10:44:36.246Z,24.90
2019-03-02T10:45:36.341Z,23.40
2019-03-02T10:46:36.425Z,22.30
2019-03-02T10:47:36.516Z,24.80
2019-03-02T10:48:36.605Z,23.50
2019-03-02T10:49:36.706Z,24.10
2019-03-02T10:50:36.779Z,23.60
2019-03-02T10:51:37.574Z,22.40
2019-03-02T10:52:36.958Z,23.40
2019-03-02T10:53:37.050Z,23.20
2019-03-02T10:54:37.136Z,21.80
2019-03-02T10:55:37.227Z,23.00
2019-03-02T10:56:37.319Z,23.30
2019-03-02T10:57:37.410Z,25.00
2019-03-02T10:58:38.662Z,23.50
2019-03-02T10:59:37.592Z,23.30
2019-03-02T11:00:37.684Z,23.20
2019-03-02T11:01:39.893Z,21.30
2019-03-02T11:02:37.866Z,23.60
2019-03-02T11:03:37.958Z,24.10
2019-03-02T11:04:40.964Z,22.80
2019-03-02T11:05:38.167Z,26.00
2019-03-02T11:06:38.225Z,22.80
2019-03-02T11:07:38.316Z,23.70
2019-03-02T11:08:38.407Z,24.00
2019-03-02T11:09:39.737Z,22.40
2019-03-02T11:10:38.589Z,23.00
2019-03-02T11:11:38.682Z,23.40
2019-03-02T11:12:39.717Z,23.70
2019-03-02T11:13:38.865Z,22.90
2019-03-02T11:14:38.956Z,25.10
2019-03-02T11:15:39.712Z,26.30
2019-03-02T11:16:41.044Z,25.60
2019-03-02T11:17:39.545Z,24.80
2019-03-02T11:18:39.321Z,23.10
2019-03-02T11:19:39.413Z,24.10
2019-03-02T11:20:39.504Z,25.70
2019-03-02T11:21:39.596Z,24.30
2019-03-02T11:22:39.694Z,24.30
2019-03-02T11:23:39.778Z,22.90
2019-03-02T11:24:39.871Z,23.80
2019-03-02T11:25:39.968Z,26.30
2019-03-02T11:26:40.650Z,24.50
2019-03-02T11:27:40.148Z,23.90
2019-03-02T11:28:40.241Z,22.40
2019-03-02T11:29:40.328Z,26.10
2019-03-02T11:30:40.421Z,24.90
2019-03-02T11:31:42.017Z,26.80
2019-03-02T11:32:40.603Z,22.70
2019-03-02T11:33:40.695Z,23.40
2019-03-02T11:34:40.786Z,25.20
2019-03-02T11:35:40.875Z,24.20
2019-03-02T11:36:41.038Z,26.30
2019-03-02T11:37:41.059Z,23.00
2019-03-02T11:38:41.410Z,26.20
2019-03-02T11:39:41.242Z,26.50
2019-03-02T11:40:41.330Z,25.80
2019-03-02T11:41:41.422Z,27.00
2019-03-02T11:42:41.512Z,25.40
2019-03-02T11:43:41.602Z,27.30
2019-03-02T11:44:41.697Z,27.60
2019-03-02T11:45:41.783Z,26.20
2019-03-02T11:46:41.874Z,25.80
2019-03-02T11:47:41.967Z,27.80
2019-03-02T11:48:42.059Z,28.20
2019-03-02T11:49:42.151Z,28.60
2019-03-02T11:50:42.242Z,26.30
2019-03-02T11:51:42.334Z,25.10
2019-03-02T11:52:42.428Z,26.40
2019-03-02T11:53:42.517Z,27.50
2019-03-02T11:54:42.608Z,27.20
2019-03-02T11:55:42.700Z,27.40
2019-03-02T11:56:45.629Z,28.90
2019-03-02T11:57:42.884Z,27.20
2019-03-02T11:58:42.976Z,28.80
2019-03-02T11:59:45.304Z,28.40
2019-03-02T12:00:43.157Z,29.50
2019-03-02T12:01:43.247Z,29.70
2019-03-02T12:02:43.338Z,28.70
2019-03-02T12:03:43.428Z,29.40
2019-03-02T12:04:43.523Z,29.20
2019-03-02T12:05:43.614Z,31.10
2019-03-02T12:06:43.704Z,29.60
2019-03-02T12:07:45.497Z,28.60
2019-03-02T12:08:43.993Z,28.20
2019-03-02T12:09:44.062Z,29.50
2019-03-02T12:10:44.047Z,27.70
2019-03-02T12:11:46.967Z,28.20
2019-03-02T12:12:44.321Z,28.70
2019-03-02T12:13:44.403Z,29.30
2019-03-02T12:14:46.290Z,30.60
2019-03-02T12:15:49.398Z,29.80
2019-03-02T12:16:44.721Z,30.00
2019-03-02T12:17:44.814Z,28.10
2019-03-02T12:18:44.905Z,28.20
2019-03-02T12:19:44.996Z,29.80
2019-03-02T12:20:45.513Z,27.40
2019-03-02T12:21:45.179Z,30.10
2019-03-02T12:22:45.270Z,32.10
2019-03-02T12:23:45.363Z,26.70
2019-03-02T12:24:45.453Z,31.30
2019-03-02T12:25:45.544Z,28.90
2019-03-02T12:26:46.367Z,28.50
2019-03-02T12:27:45.728Z,28.20
2019-03-02T12:28:45.819Z,29.50
2019-03-02T12:29:49.263Z,32.60
2019-03-02T12:30:46.001Z,28.80
2019-03-02T12:31:46.095Z,28.40
2019-03-02T12:32:46.182Z,27.50
2019-03-02T12:33:46.279Z,28.60
2019-03-02T12:34:46.370Z,27.40
2019-03-02T12:35:46.460Z,29.20
2019-03-02T12:36:49.213Z,27.10
2019-03-02T12:37:46.644Z,28.10
2019-03-02T12:38:48.072Z,28.80
2019-03-02T12:39:46.831Z,30.00
2019-03-02T12:40:46.921Z,28.90
2019-03-02T12:41:48.895Z,29.60
2019-03-02T12:42:47.104Z,27.30
2019-03-02T12:43:47.196Z,27.70
2019-03-02T12:44:47.293Z,28.70
2019-03-02T12:45:47.374Z,27.90
2019-03-02T12:46:48.045Z,28.10
2019-03-02T12:47:47.556Z,27.30
2019-03-02T12:48:47.644Z,29.20
2019-03-02T12:49:48.047Z,27.80
2019-03-02T12:50:47.829Z,30.00
2019-03-02T12:51:47.923Z,29.00
2019-03-02T12:52:51.313Z,28.50
2019-03-02T12:53:48.112Z,28.70